Impacts METAR Board
IDs:

KMCO - Orlando Intl, FL, US

Updated at: 0700 UTC 24 Jun 2018
Potential Impact None Slight Moderate High
Time 23/19Z 23/20Z 23/21Z 23/22Z 23/23Z 24/00Z 24/01Z 24/02Z 24/03Z 24/04Z 24/05Z 24/06Z 24/07Z
Temp89 93 81 78 77 78 78 78 78 77 76 76 75
Dewpt75 73 74 74 74 75 76 77 77 75 73 74 74
Altim29.99 29.96 30.00 29.99 30.01 30.01 30.01 30.01 30.04 30.05 30.04 30.03 30.01
VIS10 10 10 10 10 10 10 10 10 10 10 10 10
CIG250 250 85 85 100 110 120 180 150 230 38 250 250
CoverBKNBKNBKNBKNBKNBKNBKNBKNOVCBKNBKNBKNBKN
FltCatVFRVFRVFRVFRVFRVFRVFRVFRVFRVFRVFRVFRVFR
WXTSTS-TSRATSTS-RA--------------
WDir250310250140170200150180130180180190160
WSpd7 6 14 7 3 3 6 3 3 5 4 4 4
WGst-- -- -- -- -- -- -- -- -- -- -- -- --
Raw hourly METARs
KMCO 231853Z 25007KT 10SM TS FEW037CB BKN250 32/24 A2999 RMK AO2 LTG DSNT E-SW TSB29 SLP153 OCNL LTGIC E AND DSNT SW TS E MOV E CB DSNT SW T03170239 $
KMCO 231953Z 31006KT 10SM TS FEW037CB SCT085 BKN250 34/23 A2996 RMK AO2 LTG DSNT ALQDS TSE31E45B49 SLP145 OCNL LTGIC SW AND DSNT E AND S TS SW MOV E CB DSNT E AND S T03390228 $
KMCO 232053Z COR 25014KT 10SM -TSRA FEW050CB BKN085 BKN250 27/23 A3000 RMK AO2 LTG DSNT ALQDS RAB51 SLP157 FRQ LTGIC OHD AND ALQDS TS OHD AND ALQDS MOV E P0000 60000 T02720233 55004 $
KMCO 232153Z 14007KT 10SM TS SCT050CB BKN085 BKN250 26/23 A2999 RMK AO2 LTG DSNT ALQDS RAE08 SLP155 FRQ LTGIC N AND E TS N AND E MOV E CB DSNT SW AND NW VCSH N AND E P0000 T02560233 $
KMCO 232253Z 17003KT 10SM TS SCT050CB BKN100 BKN160 BKN250 25/23 A3001 RMK AO2 LTG DSNT W-N SLP162 FRQ LTGIC W-N TS W-N MOV SE T02500233 $
KMCO 232353Z 20003KT 10SM -RA SCT060 BKN110 BKN250 26/24 A3001 RMK AO2 RAB46 TSE48 SLP161 P0000 60000 T02560239 10339 20250 53004 $
KMCO 240053Z 15006KT 10SM FEW060 BKN120 BKN250 26/24 A3001 RMK AO2 RAE42 SLP160 P0000 T02560244 $
KMCO 240153Z 18003KT 10SM FEW120 BKN180 BKN220 26/25 A3001 RMK AO2 SLP162 T02560250 $
KMCO 240253Z 13003KT 10SM FEW044 BKN150 OVC230 26/25 A3004 RMK AO2 SLP170 60000 T02560250 53009 $
KMCO 240353Z 18005KT 10SM SCT150 BKN230 25/24 A3005 RMK AO2 SLP174 T02500239 $
KMCO 240453Z 18004KT 10SM BKN038 BKN230 24/23 A3004 RMK AO2 SLP172 T02440228 403390239 $
KMCO 240553Z 19004KT 10SM FEW047 FEW150 BKN250 24/23 A3003 RMK AO2 SLP167 60000 T02440233 10256 20244 58003 $
KMCO 240653Z 16004KT 10SM FEW050 FEW150 BKN250 24/23 A3001 RMK AO2 SLP160 T02390233 $



Page loaded:  07:18 UTC  |   12:18 AM Pacific  |   01:18 AM Mountain  |   02:18 AM Central  |   03:18 AM Eastern

 

ADVISORIES

FORECASTS

FORECASTS

OBSERVATIONS

USER TOOLS

ABOUT US